sensor_id;sensor_type;location;lat;lon;timestamp;P1;durP1;ratioP1;P2;durP2;ratioP2
64799;SDS011;51233;51.982;4.594;2023-04-09T00:02:40;10.83;;;9.73;;
64799;SDS011;51233;51.982;4.594;2023-04-09T00:05:41;12.43;;;10.67;;
64799;SDS011;51233;51.982;4.594;2023-04-09T00:08:42;11.10;;;9.93;;
64799;SDS011;51233;51.982;4.594;2023-04-09T00:11:42;12.60;;;11.30;;
64799;SDS011;51233;51.982;4.594;2023-04-09T00:14:42;13.20;;;11.32;;
64799;SDS011;51233;51.982;4.594;2023-04-09T00:17:45;14.30;;;12.43;;
64799;SDS011;51233;51.982;4.594;2023-04-09T00:20:46;14.10;;;12.70;;
64799;SDS011;51233;51.982;4.594;2023-04-09T00:23:52;15.65;;;13.45;;
64799;SDS011;51233;51.982;4.594;2023-04-09T00:26:52;15.80;;;13.25;;
64799;SDS011;51233;51.982;4.594;2023-04-09T00:29:55;15.30;;;13.70;;
64799;SDS011;51233;51.982;4.594;2023-04-09T00:32:55;16.83;;;14.75;;
64799;SDS011;51233;51.982;4.594;2023-04-09T00:35:56;16.03;;;14.13;;
64799;SDS011;51233;51.982;4.594;2023-04-09T00:38:56;15.77;;;14.07;;
64799;SDS011;51233;51.982;4.594;2023-04-09T00:41:57;16.63;;;14.07;;
64799;SDS011;51233;51.982;4.594;2023-04-09T00:44:58;18.73;;;15.35;;
64799;SDS011;51233;51.982;4.594;2023-04-09T00:47:58;15.43;;;13.83;;
64799;SDS011;51233;51.982;4.594;2023-04-09T00:50:58;18.47;;;14.90;;
64799;SDS011;51233;51.982;4.594;2023-04-09T00:53:58;15.57;;;13.77;;
64799;SDS011;51233;51.982;4.594;2023-04-09T00:56:58;17.38;;;15.10;;
64799;SDS011;51233;51.982;4.594;2023-04-09T00:59:59;18.70;;;15.63;;
64799;SDS011;51233;51.982;4.594;2023-04-09T01:03:03;16.58;;;14.88;;
64799;SDS011;51233;51.982;4.594;2023-04-09T01:15:33;20.05;;;15.68;;
64799;SDS011;51233;51.982;4.594;2023-04-09T01:18:41;16.83;;;14.23;;
64799;SDS011;51233;51.982;4.594;2023-04-09T01:21:42;16.23;;;13.85;;
64799;SDS011;51233;51.982;4.594;2023-04-09T01:25:28;16.00;;;14.30;;
64799;SDS011;51233;51.982;4.594;2023-04-09T01:31:31;15.73;;;13.85;;
64799;SDS011;51233;51.982;4.594;2023-04-09T01:34:36;18.27;;;15.52;;
64799;SDS011;51233;51.982;4.594;2023-04-09T01:37:37;15.70;;;13.98;;
64799;SDS011;51233;51.982;4.594;2023-04-09T01:40:41;15.50;;;13.67;;
64799;SDS011;51233;51.982;4.594;2023-04-09T01:43:42;21.02;;;15.25;;
64799;SDS011;51233;51.982;4.594;2023-04-09T01:46:42;17.77;;;15.87;;
64799;SDS011;51233;51.982;4.594;2023-04-09T01:49:44;17.17;;;15.35;;
64799;SDS011;51233;51.982;4.594;2023-04-09T01:52:45;17.05;;;15.00;;
64799;SDS011;51233;51.982;4.594;2023-04-09T01:55:45;16.23;;;14.52;;
64799;SDS011;51233;51.982;4.594;2023-04-09T01:58:45;15.13;;;13.13;;
64799;SDS011;51233;51.982;4.594;2023-04-09T02:01:46;14.83;;;13.27;;
64799;SDS011;51233;51.982;4.594;2023-04-09T02:04:48;14.88;;;13.27;;
64799;SDS011;51233;51.982;4.594;2023-04-09T02:10:53;18.25;;;15.40;;
64799;SDS011;51233;51.982;4.594;2023-04-09T02:13:54;17.55;;;14.80;;
64799;SDS011;51233;51.982;4.594;2023-04-09T02:16:55;16.83;;;14.93;;
64799;SDS011;51233;51.982;4.594;2023-04-09T02:19:55;19.17;;;15.70;;
64799;SDS011;51233;51.982;4.594;2023-04-09T02:22:56;17.53;;;14.90;;
64799;SDS011;51233;51.982;4.594;2023-04-09T02:25:56;18.03;;;14.97;;
64799;SDS011;51233;51.982;4.594;2023-04-09T02:28:56;17.90;;;14.10;;
64799;SDS011;51233;51.982;4.594;2023-04-09T02:31:56;18.67;;;15.88;;
64799;SDS011;51233;51.982;4.594;2023-04-09T02:34:56;17.90;;;16.00;;
64799;SDS011;51233;51.982;4.594;2023-04-09T02:37:57;17.95;;;15.95;;
64799;SDS011;51233;51.982;4.594;2023-04-09T02:40:57;18.73;;;14.75;;
64799;SDS011;51233;51.982;4.594;2023-04-09T02:43:57;17.73;;;15.00;;
64799;SDS011;51233;51.982;4.594;2023-04-09T02:47:00;18.33;;;14.52;;
64799;SDS011;51233;51.982;4.594;2023-04-09T02:50:00;17.77;;;15.25;;
64799;SDS011;51233;51.982;4.594;2023-04-09T02:53:00;16.40;;;14.50;;
64799;SDS011;51233;51.982;4.594;2023-04-09T02:56:00;16.60;;;14.35;;
64799;SDS011;51233;51.982;4.594;2023-04-09T02:59:01;18.30;;;14.30;;
64799;SDS011;51233;51.982;4.594;2023-04-09T03:02:01;18.95;;;15.02;;
64799;SDS011;51233;51.982;4.594;2023-04-09T03:05:01;16.40;;;14.70;;
64799;SDS011;51233;51.982;4.594;2023-04-09T03:08:02;16.83;;;15.07;;
64799;SDS011;51233;51.982;4.594;2023-04-09T03:11:02;18.67;;;15.30;;
64799;SDS011;51233;51.982;4.594;2023-04-09T03:14:02;18.67;;;15.32;;
64799;SDS011;51233;51.982;4.594;2023-04-09T03:17:02;18.70;;;15.43;;
64799;SDS011;51233;51.982;4.594;2023-04-09T03:20:02;16.55;;;14.45;;
64799;SDS011;51233;51.982;4.594;2023-04-09T03:23:03;18.70;;;15.97;;
64799;SDS011;51233;51.982;4.594;2023-04-09T03:26:04;18.17;;;14.77;;
64799;SDS011;51233;51.982;4.594;2023-04-09T03:32:05;18.80;;;14.98;;
64799;SDS011;51233;51.982;4.594;2023-04-09T03:35:05;17.38;;;15.02;;
64799;SDS011;51233;51.982;4.594;2023-04-09T03:38:05;16.53;;;14.70;;
64799;SDS011;51233;51.982;4.594;2023-04-09T03:41:05;19.23;;;15.37;;
64799;SDS011;51233;51.982;4.594;2023-04-09T03:44:05;20.27;;;15.93;;
64799;SDS011;51233;51.982;4.594;2023-04-09T03:47:06;17.23;;;14.55;;
64799;SDS011;51233;51.982;4.594;2023-04-09T03:50:06;16.73;;;14.93;;
64799;SDS011;51233;51.982;4.594;2023-04-09T03:53:06;17.20;;;15.10;;
64799;SDS011;51233;51.982;4.594;2023-04-09T03:56:07;18.10;;;14.80;;
64799;SDS011;51233;51.982;4.594;2023-04-09T03:59:07;18.23;;;14.47;;
64799;SDS011;51233;51.982;4.594;2023-04-09T04:02:08;16.60;;;14.77;;
64799;SDS011;51233;51.982;4.594;2023-04-09T04:05:08;16.58;;;14.73;;
64799;SDS011;51233;51.982;4.594;2023-04-09T04:08:08;17.88;;;15.52;;
64799;SDS011;51233;51.982;4.594;2023-04-09T04:11:08;21.52;;;15.48;;
64799;SDS011;51233;51.982;4.594;2023-04-09T04:14:08;17.52;;;15.65;;
64799;SDS011;51233;51.982;4.594;2023-04-09T04:17:09;16.77;;;14.95;;
64799;SDS011;51233;51.982;4.594;2023-04-09T04:20:09;18.30;;;15.73;;
64799;SDS011;51233;51.982;4.594;2023-04-09T04:23:09;17.83;;;15.93;;
64799;SDS011;51233;51.982;4.594;2023-04-09T04:26:10;16.60;;;14.90;;
64799;SDS011;51233;51.982;4.594;2023-04-09T04:29:10;20.03;;;14.37;;
64799;SDS011;51233;51.982;4.594;2023-04-09T04:32:10;17.08;;;15.10;;
64799;SDS011;51233;51.982;4.594;2023-04-09T04:35:10;19.70;;;15.93;;
64799;SDS011;51233;51.982;4.594;2023-04-09T04:38:10;19.15;;;16.92;;
64799;SDS011;51233;51.982;4.594;2023-04-09T04:41:11;17.63;;;15.00;;
64799;SDS011;51233;51.982;4.594;2023-04-09T04:44:11;21.67;;;14.70;;
64799;SDS011;51233;51.982;4.594;2023-04-09T04:47:11;16.87;;;14.97;;
64799;SDS011;51233;51.982;4.594;2023-04-09T04:50:11;17.30;;;15.17;;
64799;SDS011;51233;51.982;4.594;2023-04-09T04:53:12;16.13;;;14.27;;
64799;SDS011;51233;51.982;4.594;2023-04-09T04:56:12;17.50;;;14.57;;
64799;SDS011;51233;51.982;4.594;2023-04-09T04:59:16;20.42;;;16.00;;
64799;SDS011;51233;51.982;4.594;2023-04-09T05:02:16;19.75;;;15.27;;
64799;SDS011;51233;51.982;4.594;2023-04-09T05:05:16;16.17;;;14.38;;
64799;SDS011;51233;51.982;4.594;2023-04-09T05:08:16;14.75;;;13.15;;
64799;SDS011;51233;51.982;4.594;2023-04-09T05:11:16;17.77;;;14.75;;
64799;SDS011;51233;51.982;4.594;2023-04-09T05:14:19;17.27;;;14.02;;
64799;SDS011;51233;51.982;4.594;2023-04-09T05:17:20;18.85;;;14.73;;
64799;SDS011;51233;51.982;4.594;2023-04-09T05:20:21;15.10;;;13.50;;
64799;SDS011;51233;51.982;4.594;2023-04-09T05:23:21;18.90;;;14.40;;
64799;SDS011;51233;51.982;4.594;2023-04-09T05:26:21;14.23;;;12.37;;
64799;SDS011;51233;51.982;4.594;2023-04-09T05:29:21;15.90;;;13.97;;
64799;SDS011;51233;51.982;4.594;2023-04-09T05:32:22;20.60;;;15.48;;
64799;SDS011;51233;51.982;4.594;2023-04-09T05:35:22;16.67;;;14.73;;
64799;SDS011;51233;51.982;4.594;2023-04-09T05:38:22;20.20;;;16.30;;
64799;SDS011;51233;51.982;4.594;2023-04-09T05:41:22;17.40;;;15.40;;
64799;SDS011;51233;51.982;4.594;2023-04-09T05:44:23;17.98;;;14.95;;
64799;SDS011;51233;51.982;4.594;2023-04-09T05:47:26;16.10;;;13.52;;
64799;SDS011;51233;51.982;4.594;2023-04-09T05:50:26;15.30;;;12.77;;
64799;SDS011;51233;51.982;4.594;2023-04-09T05:53:26;18.58;;;14.80;;
64799;SDS011;51233;51.982;4.594;2023-04-09T05:56:27;15.17;;;13.23;;
64799;SDS011;51233;51.982;4.594;2023-04-09T05:59:30;17.17;;;14.35;;
64799;SDS011;51233;51.982;4.594;2023-04-09T06:02:33;16.27;;;14.50;;
64799;SDS011;51233;51.982;4.594;2023-04-09T06:05:33;20.42;;;15.65;;
64799;SDS011;51233;51.982;4.594;2023-04-09T06:08:34;16.47;;;14.30;;
64799;SDS011;51233;51.982;4.594;2023-04-09T06:11:34;20.40;;;15.65;;
64799;SDS011;51233;51.982;4.594;2023-04-09T06:14:34;17.03;;;14.77;;
64799;SDS011;51233;51.982;4.594;2023-04-09T06:17:34;19.10;;;15.77;;
64799;SDS011;51233;51.982;4.594;2023-04-09T06:20:37;18.67;;;15.43;;
64799;SDS011;51233;51.982;4.594;2023-04-09T06:23:38;18.02;;;15.88;;
64799;SDS011;51233;51.982;4.594;2023-04-09T06:26:38;19.83;;;16.40;;
64799;SDS011;51233;51.982;4.594;2023-04-09T06:29:39;19.00;;;15.73;;
64799;SDS011;51233;51.982;4.594;2023-04-09T06:32:39;22.00;;;16.90;;
64799;SDS011;51233;51.982;4.594;2023-04-09T06:35:40;24.13;;;17.13;;
64799;SDS011;51233;51.982;4.594;2023-04-09T06:38:40;19.67;;;15.80;;
64799;SDS011;51233;51.982;4.594;2023-04-09T06:41:40;20.13;;;15.75;;
64799;SDS011;51233;51.982;4.594;2023-04-09T06:44:40;23.50;;;17.80;;
64799;SDS011;51233;51.982;4.594;2023-04-09T06:47:41;25.87;;;19.13;;
64799;SDS011;51233;51.982;4.594;2023-04-09T06:50:41;25.20;;;18.70;;
64799;SDS011;51233;51.982;4.594;2023-04-09T06:53:41;30.65;;;20.33;;
64799;SDS011;51233;51.982;4.594;2023-04-09T06:56:41;26.40;;;19.95;;
64799;SDS011;51233;51.982;4.594;2023-04-09T06:59:41;28.67;;;21.08;;
64799;SDS011;51233;51.982;4.594;2023-04-09T07:02:42;32.47;;;23.08;;
64799;SDS011;51233;51.982;4.594;2023-04-09T07:05:42;31.27;;;21.10;;
64799;SDS011;51233;51.982;4.594;2023-04-09T07:08:42;31.57;;;22.60;;
64799;SDS011;51233;51.982;4.594;2023-04-09T07:11:43;33.00;;;22.90;;
64799;SDS011;51233;51.982;4.594;2023-04-09T07:14:43;29.60;;;21.07;;
64799;SDS011;51233;51.982;4.594;2023-04-09T07:17:43;39.28;;;23.83;;
64799;SDS011;51233;51.982;4.594;2023-04-09T07:20:43;31.17;;;22.50;;
64799;SDS011;51233;51.982;4.594;2023-04-09T07:23:43;40.50;;;26.52;;
64799;SDS011;51233;51.982;4.594;2023-04-09T07:26:43;37.30;;;25.00;;
64799;SDS011;51233;51.982;4.594;2023-04-09T07:29:44;38.05;;;24.50;;
64799;SDS011;51233;51.982;4.594;2023-04-09T07:32:44;38.83;;;27.20;;
64799;SDS011;51233;51.982;4.594;2023-04-09T07:35:45;42.90;;;26.70;;
64799;SDS011;51233;51.982;4.594;2023-04-09T07:38:45;39.63;;;27.17;;
64799;SDS011;51233;51.982;4.594;2023-04-09T07:41:46;44.73;;;28.60;;
64799;SDS011;51233;51.982;4.594;2023-04-09T07:44:46;42.13;;;27.30;;
64799;SDS011;51233;51.982;4.594;2023-04-09T07:47:46;40.97;;;27.83;;
64799;SDS011;51233;51.982;4.594;2023-04-09T07:50:47;45.07;;;28.23;;
64799;SDS011;51233;51.982;4.594;2023-04-09T07:53:53;39.23;;;26.93;;
64799;SDS011;51233;51.982;4.594;2023-04-09T07:56:53;43.28;;;27.92;;
64799;SDS011;51233;51.982;4.594;2023-04-09T07:59:53;42.70;;;26.90;;
64799;SDS011;51233;51.982;4.594;2023-04-09T08:02:54;44.93;;;28.80;;
64799;SDS011;51233;51.982;4.594;2023-04-09T08:05:54;39.63;;;25.87;;
64799;SDS011;51233;51.982;4.594;2023-04-09T08:08:55;39.33;;;27.57;;
64799;SDS011;51233;51.982;4.594;2023-04-09T08:11:55;42.88;;;28.60;;
64799;SDS011;51233;51.982;4.594;2023-04-09T08:14:56;45.77;;;30.67;;
64799;SDS011;51233;51.982;4.594;2023-04-09T08:17:56;44.90;;;29.30;;
64799;SDS011;51233;51.982;4.594;2023-04-09T08:20:56;33.57;;;22.43;;
64799;SDS011;51233;51.982;4.594;2023-04-09T08:23:56;43.57;;;27.50;;
64799;SDS011;51233;51.982;4.594;2023-04-09T08:27:00;43.50;;;29.20;;
64799;SDS011;51233;51.982;4.594;2023-04-09T08:30:04;43.13;;;29.00;;
64799;SDS011;51233;51.982;4.594;2023-04-09T08:33:04;39.28;;;27.05;;
64799;SDS011;51233;51.982;4.594;2023-04-09T08:36:08;46.27;;;30.67;;
64799;SDS011;51233;51.982;4.594;2023-04-09T08:39:08;41.85;;;29.92;;
64799;SDS011;51233;51.982;4.594;2023-04-09T08:42:08;39.15;;;26.55;;
64799;SDS011;51233;51.982;4.594;2023-04-09T08:45:09;41.73;;;28.00;;
64799;SDS011;51233;51.982;4.594;2023-04-09T08:48:16;40.72;;;28.17;;
64799;SDS011;51233;51.982;4.594;2023-04-09T08:51:18;41.70;;;28.07;;
64799;SDS011;51233;51.982;4.594;2023-04-09T08:54:18;44.75;;;31.30;;
64799;SDS011;51233;51.982;4.594;2023-04-09T08:57:19;42.30;;;30.13;;
64799;SDS011;51233;51.982;4.594;2023-04-09T09:00:19;44.27;;;31.40;;
64799;SDS011;51233;51.982;4.594;2023-04-09T09:03:19;40.28;;;29.17;;
64799;SDS011;51233;51.982;4.594;2023-04-09T09:06:20;40.88;;;28.25;;
64799;SDS011;51233;51.982;4.594;2023-04-09T09:09:21;41.67;;;29.67;;
64799;SDS011;51233;51.982;4.594;2023-04-09T09:15:29;42.63;;;30.98;;
64799;SDS011;51233;51.982;4.594;2023-04-09T09:18:39;42.22;;;29.95;;
64799;SDS011;51233;51.982;4.594;2023-04-09T09:21:40;41.08;;;30.42;;
64799;SDS011;51233;51.982;4.594;2023-04-09T09:24:50;37.00;;;25.43;;
64799;SDS011;51233;51.982;4.594;2023-04-09T09:27:51;44.53;;;31.45;;
64799;SDS011;51233;51.982;4.594;2023-04-09T09:30:52;45.67;;;31.60;;
64799;SDS011;51233;51.982;4.594;2023-04-09T09:33:52;44.40;;;30.27;;
64799;SDS011;51233;51.982;4.594;2023-04-09T09:36:52;43.97;;;31.47;;
64799;SDS011;51233;51.982;4.594;2023-04-09T09:39:56;45.05;;;32.50;;
64799;SDS011;51233;51.982;4.594;2023-04-09T09:42:56;46.03;;;32.97;;
64799;SDS011;51233;51.982;4.594;2023-04-09T09:45:57;47.33;;;31.93;;
64799;SDS011;51233;51.982;4.594;2023-04-09T09:48:57;45.47;;;31.47;;
64799;SDS011;51233;51.982;4.594;2023-04-09T09:51:58;41.45;;;28.83;;
64799;SDS011;51233;51.982;4.594;2023-04-09T09:58:07;45.20;;;30.30;;
64799;SDS011;51233;51.982;4.594;2023-04-09T10:01:12;42.53;;;30.77;;
64799;SDS011;51233;51.982;4.594;2023-04-09T10:04:15;41.20;;;28.50;;
64799;SDS011;51233;51.982;4.594;2023-04-09T10:07:15;44.67;;;31.63;;
64799;SDS011;51233;51.982;4.594;2023-04-09T10:10:16;42.30;;;30.13;;
64799;SDS011;51233;51.982;4.594;2023-04-09T10:13:20;42.73;;;29.70;;
64799;SDS011;51233;51.982;4.594;2023-04-09T10:16:24;34.92;;;22.10;;
64799;SDS011;51233;51.982;4.594;2023-04-09T10:19:24;39.97;;;28.83;;
64799;SDS011;51233;51.982;4.594;2023-04-09T10:22:25;39.33;;;27.67;;
64799;SDS011;51233;51.982;4.594;2023-04-09T10:25:26;39.80;;;29.90;;
64799;SDS011;51233;51.982;4.594;2023-04-09T10:28:33;39.80;;;28.52;;
64799;SDS011;51233;51.982;4.594;2023-04-09T10:34:46;40.45;;;28.65;;
64799;SDS011;51233;51.982;4.594;2023-04-09T10:37:47;39.37;;;27.67;;
64799;SDS011;51233;51.982;4.594;2023-04-09T10:40:49;38.88;;;26.70;;
64799;SDS011;51233;51.982;4.594;2023-04-09T10:43:50;35.27;;;25.60;;
64799;SDS011;51233;51.982;4.594;2023-04-09T10:46:53;36.90;;;28.17;;
64799;SDS011;51233;51.982;4.594;2023-04-09T10:49:53;42.60;;;32.00;;
64799;SDS011;51233;51.982;4.594;2023-04-09T10:52:54;36.93;;;29.53;;
64799;SDS011;51233;51.982;4.594;2023-04-09T10:55:59;36.70;;;27.50;;
64799;SDS011;51233;51.982;4.594;2023-04-09T10:59:00;35.67;;;27.23;;
64799;SDS011;51233;51.982;4.594;2023-04-09T11:02:03;33.20;;;25.73;;
64799;SDS011;51233;51.982;4.594;2023-04-09T11:05:11;33.30;;;25.60;;
64799;SDS011;51233;51.982;4.594;2023-04-09T11:08:15;34.15;;;26.10;;
64799;SDS011;51233;51.982;4.594;2023-04-09T11:11:15;37.50;;;31.40;;
64799;SDS011;51233;51.982;4.594;2023-04-09T11:14:19;34.43;;;25.07;;
64799;SDS011;51233;51.982;4.594;2023-04-09T11:17:19;27.52;;;23.17;;
64799;SDS011;51233;51.982;4.594;2023-04-09T11:20:20;34.13;;;24.67;;
64799;SDS011;51233;51.982;4.594;2023-04-09T11:23:20;30.83;;;24.95;;
64799;SDS011;51233;51.982;4.594;2023-04-09T11:26:36;32.33;;;25.23;;
64799;SDS011;51233;51.982;4.594;2023-04-09T11:29:36;34.90;;;26.00;;
64799;SDS011;51233;51.982;4.594;2023-04-09T11:32:36;32.03;;;28.50;;
64799;SDS011;51233;51.982;4.594;2023-04-09T11:35:37;33.55;;;27.50;;
64799;SDS011;51233;51.982;4.594;2023-04-09T11:38:37;33.63;;;29.80;;
64799;SDS011;51233;51.982;4.594;2023-04-09T11:41:38;37.03;;;30.50;;
64799;SDS011;51233;51.982;4.594;2023-04-09T11:44:38;33.88;;;30.05;;
64799;SDS011;51233;51.982;4.594;2023-04-09T11:47:42;33.70;;;30.13;;
64799;SDS011;51233;51.982;4.594;2023-04-09T11:50:42;33.75;;;29.50;;
64799;SDS011;51233;51.982;4.594;2023-04-09T11:53:42;34.00;;;28.00;;
64799;SDS011;51233;51.982;4.594;2023-04-09T11:56:42;31.67;;;27.57;;
64799;SDS011;51233;51.982;4.594;2023-04-09T11:59:43;36.13;;;29.23;;
64799;SDS011;51233;51.982;4.594;2023-04-09T12:02:45;32.40;;;27.43;;
64799;SDS011;51233;51.982;4.594;2023-04-09T12:05:45;31.40;;;25.60;;
64799;SDS011;51233;51.982;4.594;2023-04-09T12:08:55;28.90;;;25.73;;
64799;SDS011;51233;51.982;4.594;2023-04-09T12:11:58;29.13;;;25.85;;
64799;SDS011;51233;51.982;4.594;2023-04-09T12:14:59;29.37;;;24.60;;
64799;SDS011;51233;51.982;4.594;2023-04-09T12:18:09;28.38;;;22.52;;
64799;SDS011;51233;51.982;4.594;2023-04-09T12:21:09;29.08;;;23.52;;
64799;SDS011;51233;51.982;4.594;2023-04-09T12:24:10;28.50;;;24.03;;
64799;SDS011;51233;51.982;4.594;2023-04-09T12:27:10;29.67;;;24.77;;
64799;SDS011;51233;51.982;4.594;2023-04-09T12:30:12;30.40;;;23.10;;
64799;SDS011;51233;51.982;4.594;2023-04-09T12:33:13;24.08;;;21.25;;
64799;SDS011;51233;51.982;4.594;2023-04-09T12:36:13;26.10;;;21.48;;
64799;SDS011;51233;51.982;4.594;2023-04-09T12:39:13;28.02;;;22.52;;
64799;SDS011;51233;51.982;4.594;2023-04-09T12:42:13;22.63;;;20.13;;
64799;SDS011;51233;51.982;4.594;2023-04-09T12:45:15;22.80;;;20.20;;
64799;SDS011;51233;51.982;4.594;2023-04-09T12:48:15;21.80;;;19.15;;
64799;SDS011;51233;51.982;4.594;2023-04-09T12:51:16;22.00;;;19.70;;
64799;SDS011;51233;51.982;4.594;2023-04-09T12:54:22;23.33;;;20.93;;
64799;SDS011;51233;51.982;4.594;2023-04-09T12:57:22;21.05;;;18.15;;
64799;SDS011;51233;51.982;4.594;2023-04-09T13:00:23;23.95;;;19.75;;
64799;SDS011;51233;51.982;4.594;2023-04-09T13:03:23;22.07;;;18.27;;
64799;SDS011;51233;51.982;4.594;2023-04-09T13:06:23;21.33;;;18.97;;
64799;SDS011;51233;51.982;4.594;2023-04-09T13:09:33;20.35;;;18.25;;
64799;SDS011;51233;51.982;4.594;2023-04-09T13:12:34;20.45;;;17.98;;
64799;SDS011;51233;51.982;4.594;2023-04-09T13:15:34;25.00;;;18.85;;
64799;SDS011;51233;51.982;4.594;2023-04-09T13:18:34;24.63;;;18.47;;
64799;SDS011;51233;51.982;4.594;2023-04-09T13:21:35;19.77;;;17.70;;
64799;SDS011;51233;51.982;4.594;2023-04-09T13:24:35;20.70;;;17.60;;
64799;SDS011;51233;51.982;4.594;2023-04-09T13:27:35;17.73;;;15.83;;
64799;SDS011;51233;51.982;4.594;2023-04-09T13:30:35;20.95;;;16.42;;
64799;SDS011;51233;51.982;4.594;2023-04-09T13:33:35;21.98;;;19.25;;
64799;SDS011;51233;51.982;4.594;2023-04-09T13:36:36;19.90;;;17.70;;
64799;SDS011;51233;51.982;4.594;2023-04-09T13:39:36;19.88;;;17.77;;
64799;SDS011;51233;51.982;4.594;2023-04-09T13:42:36;21.58;;;19.05;;
64799;SDS011;51233;51.982;4.594;2023-04-09T13:45:36;18.47;;;16.37;;
64799;SDS011;51233;51.982;4.594;2023-04-09T13:48:36;22.23;;;15.87;;
64799;SDS011;51233;51.982;4.594;2023-04-09T13:51:37;16.45;;;14.75;;
64799;SDS011;51233;51.982;4.594;2023-04-09T13:54:42;22.92;;;16.65;;
64799;SDS011;51233;51.982;4.594;2023-04-09T13:57:42;16.38;;;14.55;;
64799;SDS011;51233;51.982;4.594;2023-04-09T14:00:43;17.42;;;14.23;;
64799;SDS011;51233;51.982;4.594;2023-04-09T14:03:43;17.13;;;15.33;;
64799;SDS011;51233;51.982;4.594;2023-04-09T14:06:43;16.60;;;14.90;;
64799;SDS011;51233;51.982;4.594;2023-04-09T14:09:43;17.83;;;14.10;;
64799;SDS011;51233;51.982;4.594;2023-04-09T14:12:44;15.50;;;11.77;;
64799;SDS011;51233;51.982;4.594;2023-04-09T14:15:44;14.30;;;11.73;;
64799;SDS011;51233;51.982;4.594;2023-04-09T14:18:45;13.17;;;11.53;;
64799;SDS011;51233;51.982;4.594;2023-04-09T14:21:45;13.15;;;11.43;;
64799;SDS011;51233;51.982;4.594;2023-04-09T14:24:45;14.27;;;12.87;;
64799;SDS011;51233;51.982;4.594;2023-04-09T14:27:45;16.63;;;13.98;;
64799;SDS011;51233;51.982;4.594;2023-04-09T14:30:45;17.10;;;12.83;;
64799;SDS011;51233;51.982;4.594;2023-04-09T14:33:46;25.03;;;12.30;;
64799;SDS011;51233;51.982;4.594;2023-04-09T14:36:46;14.07;;;12.20;;
64799;SDS011;51233;51.982;4.594;2023-04-09T14:39:47;12.20;;;10.90;;
64799;SDS011;51233;51.982;4.594;2023-04-09T14:42:47;13.40;;;12.10;;
64799;SDS011;51233;51.982;4.594;2023-04-09T14:45:47;12.63;;;10.80;;
64799;SDS011;51233;51.982;4.594;2023-04-09T14:48:47;11.63;;;10.43;;
64799;SDS011;51233;51.982;4.594;2023-04-09T14:51:47;13.70;;;12.13;;
64799;SDS011;51233;51.982;4.594;2023-04-09T14:54:48;14.37;;;12.87;;
64799;SDS011;51233;51.982;4.594;2023-04-09T14:57:48;14.65;;;13.15;;
64799;SDS011;51233;51.982;4.594;2023-04-09T15:00:48;13.65;;;12.25;;
64799;SDS011;51233;51.982;4.594;2023-04-09T15:03:49;13.83;;;12.33;;
64799;SDS011;51233;51.982;4.594;2023-04-09T15:06:49;14.10;;;11.98;;
64799;SDS011;51233;51.982;4.594;2023-04-09T15:09:49;12.27;;;11.17;;
64799;SDS011;51233;51.982;4.594;2023-04-09T15:12:49;13.30;;;11.60;;
64799;SDS011;51233;51.982;4.594;2023-04-09T15:15:50;13.40;;;12.03;;
64799;SDS011;51233;51.982;4.594;2023-04-09T15:18:51;11.93;;;10.70;;
64799;SDS011;51233;51.982;4.594;2023-04-09T15:21:54;11.93;;;10.63;;
64799;SDS011;51233;51.982;4.594;2023-04-09T15:24:55;10.20;;;9.13;;
64799;SDS011;51233;51.982;4.594;2023-04-09T15:27:55;13.73;;;10.90;;
64799;SDS011;51233;51.982;4.594;2023-04-09T15:30:55;11.67;;;10.47;;
64799;SDS011;51233;51.982;4.594;2023-04-09T15:33:55;12.57;;;11.38;;
64799;SDS011;51233;51.982;4.594;2023-04-09T15:36:56;11.17;;;9.97;;
64799;SDS011;51233;51.982;4.594;2023-04-09T15:39:56;12.65;;;11.18;;
64799;SDS011;51233;51.982;4.594;2023-04-09T15:42:56;11.88;;;10.68;;
64799;SDS011;51233;51.982;4.594;2023-04-09T15:45:56;11.23;;;10.07;;
64799;SDS011;51233;51.982;4.594;2023-04-09T15:48:56;11.45;;;10.15;;
64799;SDS011;51233;51.982;4.594;2023-04-09T15:51:56;11.57;;;10.15;;
64799;SDS011;51233;51.982;4.594;2023-04-09T15:54:57;11.53;;;10.33;;
64799;SDS011;51233;51.982;4.594;2023-04-09T15:57:57;13.63;;;12.32;;
64799;SDS011;51233;51.982;4.594;2023-04-09T16:00:57;12.60;;;11.40;;
64799;SDS011;51233;51.982;4.594;2023-04-09T16:03:57;12.60;;;11.40;;
64799;SDS011;51233;51.982;4.594;2023-04-09T16:06:57;14.83;;;11.13;;
64799;SDS011;51233;51.982;4.594;2023-04-09T16:09:59;13.37;;;12.03;;
64799;SDS011;51233;51.982;4.594;2023-04-09T16:12:59;11.60;;;10.40;;
64799;SDS011;51233;51.982;4.594;2023-04-09T16:15:59;12.00;;;10.80;;
64799;SDS011;51233;51.982;4.594;2023-04-09T16:19:00;12.33;;;11.13;;
64799;SDS011;51233;51.982;4.594;2023-04-09T16:22:03;14.43;;;10.70;;
64799;SDS011;51233;51.982;4.594;2023-04-09T16:25:03;14.13;;;11.43;;
64799;SDS011;51233;51.982;4.594;2023-04-09T16:28:03;11.17;;;10.17;;
64799;SDS011;51233;51.982;4.594;2023-04-09T16:31:03;10.07;;;9.03;;
64799;SDS011;51233;51.982;4.594;2023-04-09T16:34:04;11.57;;;10.20;;
64799;SDS011;51233;51.982;4.594;2023-04-09T16:37:04;12.10;;;10.00;;
64799;SDS011;51233;51.982;4.594;2023-04-09T16:40:05;12.03;;;10.83;;
64799;SDS011;51233;51.982;4.594;2023-04-09T16:43:06;11.38;;;10.18;;
64799;SDS011;51233;51.982;4.594;2023-04-09T16:46:06;11.13;;;10.00;;
64799;SDS011;51233;51.982;4.594;2023-04-09T16:49:06;13.87;;;10.77;;
64799;SDS011;51233;51.982;4.594;2023-04-09T16:52:06;12.83;;;11.47;;
64799;SDS011;51233;51.982;4.594;2023-04-09T16:55:06;10.85;;;9.70;;
64799;SDS011;51233;51.982;4.594;2023-04-09T16:58:07;11.83;;;10.67;;
64799;SDS011;51233;51.982;4.594;2023-04-09T17:01:07;12.20;;;10.77;;
64799;SDS011;51233;51.982;4.594;2023-04-09T17:04:07;12.83;;;10.43;;
64799;SDS011;51233;51.982;4.594;2023-04-09T17:07:07;11.90;;;10.70;;
64799;SDS011;51233;51.982;4.594;2023-04-09T17:10:10;11.50;;;10.30;;
64799;SDS011;51233;51.982;4.594;2023-04-09T17:13:10;11.98;;;10.30;;
64799;SDS011;51233;51.982;4.594;2023-04-09T17:16:11;10.67;;;9.33;;
64799;SDS011;51233;51.982;4.594;2023-04-09T17:19:11;12.20;;;10.83;;
64799;SDS011;51233;51.982;4.594;2023-04-09T17:22:12;12.35;;;10.50;;
64799;SDS011;51233;51.982;4.594;2023-04-09T17:25:13;11.13;;;10.00;;
64799;SDS011;51233;51.982;4.594;2023-04-09T17:28:16;12.07;;;9.60;;
64799;SDS011;51233;51.982;4.594;2023-04-09T17:31:16;10.13;;;9.13;;
64799;SDS011;51233;51.982;4.594;2023-04-09T17:34:16;11.10;;;10.00;;
64799;SDS011;51233;51.982;4.594;2023-04-09T17:37:16;11.55;;;9.77;;
64799;SDS011;51233;51.982;4.594;2023-04-09T17:40:17;11.57;;;10.38;;
64799;SDS011;51233;51.982;4.594;2023-04-09T17:43:22;10.65;;;9.55;;
64799;SDS011;51233;51.982;4.594;2023-04-09T17:46:22;11.02;;;9.75;;
64799;SDS011;51233;51.982;4.594;2023-04-09T17:49:23;10.27;;;9.20;;
64799;SDS011;51233;51.982;4.594;2023-04-09T17:52:23;11.10;;;9.18;;
64799;SDS011;51233;51.982;4.594;2023-04-09T17:55:26;10.50;;;9.40;;
64799;SDS011;51233;51.982;4.594;2023-04-09T17:58:26;10.30;;;9.40;;
64799;SDS011;51233;51.982;4.594;2023-04-09T18:01:27;10.17;;;9.17;;
64799;SDS011;51233;51.982;4.594;2023-04-09T18:04:27;10.18;;;9.10;;
64799;SDS011;51233;51.982;4.594;2023-04-09T18:07:27;10.60;;;9.60;;
64799;SDS011;51233;51.982;4.594;2023-04-09T18:10:32;12.10;;;10.13;;